sensor_id;sensor_type;location;lat;lon;timestamp;temperature;humidity
72206;DHT22;60111;48.286;7.812;2022-11-21T00:02:27;7.00;99.90
72206;DHT22;60111;48.286;7.812;2022-11-21T00:04:59;7.10;99.90
72206;DHT22;60111;48.286;7.812;2022-11-21T00:07:32;7.10;99.90
72206;DHT22;60111;48.286;7.812;2022-11-21T00:10:05;7.10;99.90
72206;DHT22;60111;48.286;7.812;2022-11-21T00:12:38;7.10;99.90
72206;DHT22;60111;48.286;7.812;2022-11-21T00:15:11;7.20;99.90
72206;DHT22;60111;48.286;7.812;2022-11-21T00:17:43;7.20;99.90
72206;DHT22;60111;48.286;7.812;2022-11-21T00:20:17;7.20;99.90
72206;DHT22;60111;48.286;7.812;2022-11-21T00:22:50;7.20;99.90
72206;DHT22;60111;48.286;7.812;2022-11-21T00:25:22;7.30;99.90
72206;DHT22;60111;48.286;7.812;2022-11-21T00:27:55;7.30;99.90
72206;DHT22;60111;48.286;7.812;2022-11-21T00:30:28;7.20;99.90
72206;DHT22;60111;48.286;7.812;2022-11-21T00:33:00;7.30;99.90
72206;DHT22;60111;48.286;7.812;2022-11-21T00:35:33;7.30;99.90
72206;DHT22;60111;48.286;7.812;2022-11-21T00:38:06;7.30;99.90
72206;DHT22;60111;48.286;7.812;2022-11-21T00:40:38;7.30;99.90
72206;DHT22;60111;48.286;7.812;2022-11-21T00:43:11;7.30;99.90
72206;DHT22;60111;48.286;7.812;2022-11-21T00:45:43;7.30;99.90
72206;DHT22;60111;48.286;7.812;2022-11-21T00:48:16;7.40;99.90
72206;DHT22;60111;48.286;7.812;2022-11-21T00:50:49;7.30;99.90
72206;DHT22;60111;48.286;7.812;2022-11-21T00:53:22;7.40;99.90
72206;DHT22;60111;48.286;7.812;2022-11-21T00:55:54;7.40;99.90
72206;DHT22;60111;48.286;7.812;2022-11-21T00:58:28;7.40;99.90
72206;DHT22;60111;48.286;7.812;2022-11-21T01:01:09;7.40;99.90
72206;DHT22;60111;48.286;7.812;2022-11-21T01:03:42;7.40;99.90
72206;DHT22;60111;48.286;7.812;2022-11-21T01:06:16;7.40;99.90
72206;DHT22;60111;48.286;7.812;2022-11-21T01:08:49;7.50;99.90
72206;DHT22;60111;48.286;7.812;2022-11-21T01:11:21;7.40;99.90
72206;DHT22;60111;48.286;7.812;2022-11-21T01:13:54;7.40;99.90
72206;DHT22;60111;48.286;7.812;2022-11-21T01:16:29;7.40;99.90
72206;DHT22;60111;48.286;7.812;2022-11-21T01:19:01;7.40;99.90
72206;DHT22;60111;48.286;7.812;2022-11-21T01:21:34;7.30;99.90
72206;DHT22;60111;48.286;7.812;2022-11-21T01:24:08;7.40;99.90
72206;DHT22;60111;48.286;7.812;2022-11-21T01:26:41;7.40;99.90
72206;DHT22;60111;48.286;7.812;2022-11-21T01:29:13;7.30;99.90
72206;DHT22;60111;48.286;7.812;2022-11-21T01:31:46;7.30;99.90
72206;DHT22;60111;48.286;7.812;2022-11-21T01:34:19;7.30;99.90
72206;DHT22;60111;48.286;7.812;2022-11-21T01:36:52;7.30;99.90
72206;DHT22;60111;48.286;7.812;2022-11-21T01:39:24;7.30;99.90
72206;DHT22;60111;48.286;7.812;2022-11-21T01:41:57;7.20;99.90
72206;DHT22;60111;48.286;7.812;2022-11-21T01:44:49;7.20;99.90
72206;DHT22;60111;48.286;7.812;2022-11-21T01:47:21;7.20;99.90
72206;DHT22;60111;48.286;7.812;2022-11-21T01:49:54;7.30;99.90
72206;DHT22;60111;48.286;7.812;2022-11-21T01:52:29;7.20;99.90
72206;DHT22;60111;48.286;7.812;2022-11-21T01:55:04;7.30;99.90
72206;DHT22;60111;48.286;7.812;2022-11-21T01:57:40;7.20;99.90
72206;DHT22;60111;48.286;7.812;2022-11-21T02:00:26;7.30;99.90
72206;DHT22;60111;48.286;7.812;2022-11-21T02:03:01;7.30;99.90
72206;DHT22;60111;48.286;7.812;2022-11-21T02:05:35;7.30;99.90
72206;DHT22;60111;48.286;7.812;2022-11-21T02:08:12;7.30;99.90
72206;DHT22;60111;48.286;7.812;2022-11-21T02:10:52;7.20;99.90
72206;DHT22;60111;48.286;7.812;2022-11-21T02:13:23;7.20;99.90
72206;DHT22;60111;48.286;7.812;2022-11-21T02:15:56;7.30;99.90
72206;DHT22;60111;48.286;7.812;2022-11-21T02:18:29;7.30;99.90
72206;DHT22;60111;48.286;7.812;2022-11-21T02:21:11;7.30;99.90
72206;DHT22;60111;48.286;7.812;2022-11-21T02:26:21;7.40;99.90
72206;DHT22;60111;48.286;7.812;2022-11-21T02:28:54;7.50;99.90
72206;DHT22;60111;48.286;7.812;2022-11-21T02:31:27;7.60;99.90
72206;DHT22;60111;48.286;7.812;2022-11-21T02:33:59;7.60;99.90
72206;DHT22;60111;48.286;7.812;2022-11-21T02:36:43;7.60;99.90
72206;DHT22;60111;48.286;7.812;2022-11-21T02:39:30;7.50;99.90
72206;DHT22;60111;48.286;7.812;2022-11-21T02:42:16;7.50;99.90
72206;DHT22;60111;48.286;7.812;2022-11-21T02:45:00;7.50;99.90
72206;DHT22;60111;48.286;7.812;2022-11-21T02:47:32;7.50;99.90
72206;DHT22;60111;48.286;7.812;2022-11-21T02:50:18;7.50;99.90
72206;DHT22;60111;48.286;7.812;2022-11-21T02:52:50;7.50;99.90
72206;DHT22;60111;48.286;7.812;2022-11-21T02:55:23;7.40;99.90
72206;DHT22;60111;48.286;7.812;2022-11-21T02:57:56;7.40;99.90
72206;DHT22;60111;48.286;7.812;2022-11-21T03:00:29;7.40;99.90
72206;DHT22;60111;48.286;7.812;2022-11-21T03:03:02;7.40;99.90
72206;DHT22;60111;48.286;7.812;2022-11-21T03:05:34;7.40;99.90
72206;DHT22;60111;48.286;7.812;2022-11-21T03:08:07;7.50;99.90
72206;DHT22;60111;48.286;7.812;2022-11-21T03:10:40;7.40;99.90
72206;DHT22;60111;48.286;7.812;2022-11-21T03:13:13;7.40;99.90
72206;DHT22;60111;48.286;7.812;2022-11-21T03:15:50;7.50;99.90
72206;DHT22;60111;48.286;7.812;2022-11-21T03:18:19;7.50;99.90
72206;DHT22;60111;48.286;7.812;2022-11-21T03:20:51;7.40;99.90
72206;DHT22;60111;48.286;7.812;2022-11-21T03:23:24;7.40;99.90
72206;DHT22;60111;48.286;7.812;2022-11-21T03:25:58;7.40;99.90
72206;DHT22;60111;48.286;7.812;2022-11-21T03:28:30;7.40;99.90
72206;DHT22;60111;48.286;7.812;2022-11-21T03:31:03;7.40;99.90
72206;DHT22;60111;48.286;7.812;2022-11-21T03:33:35;7.30;99.90
72206;DHT22;60111;48.286;7.812;2022-11-21T03:36:08;7.20;99.90
72206;DHT22;60111;48.286;7.812;2022-11-21T03:38:44;7.10;99.90
72206;DHT22;60111;48.286;7.812;2022-11-21T03:41:19;7.10;99.90
72206;DHT22;60111;48.286;7.812;2022-11-21T03:44:06;7.00;99.90
72206;DHT22;60111;48.286;7.812;2022-11-21T03:46:41;6.90;99.90
72206;DHT22;60111;48.286;7.812;2022-11-21T03:49:14;6.90;99.90
72206;DHT22;60111;48.286;7.812;2022-11-21T03:51:47;6.80;99.90
72206;DHT22;60111;48.286;7.812;2022-11-21T03:54:20;6.80;99.90
72206;DHT22;60111;48.286;7.812;2022-11-21T03:56:52;6.90;99.90
72206;DHT22;60111;48.286;7.812;2022-11-21T03:59:25;6.90;99.90
72206;DHT22;60111;48.286;7.812;2022-11-21T04:01:57;6.90;99.90
72206;DHT22;60111;48.286;7.812;2022-11-21T04:04:30;7.00;99.90
72206;DHT22;60111;48.286;7.812;2022-11-21T04:07:02;7.00;99.90
72206;DHT22;60111;48.286;7.812;2022-11-21T04:09:35;6.90;99.90
72206;DHT22;60111;48.286;7.812;2022-11-21T04:12:08;6.90;99.90
72206;DHT22;60111;48.286;7.812;2022-11-21T04:14:41;6.90;99.90
72206;DHT22;60111;48.286;7.812;2022-11-21T04:17:13;6.90;99.90
72206;DHT22;60111;48.286;7.812;2022-11-21T04:19:46;6.90;99.90
72206;DHT22;60111;48.286;7.812;2022-11-21T04:22:18;6.80;99.90
72206;DHT22;60111;48.286;7.812;2022-11-21T04:24:51;6.80;99.90
72206;DHT22;60111;48.286;7.812;2022-11-21T04:27:23;6.80;99.90
72206;DHT22;60111;48.286;7.812;2022-11-21T04:29:56;6.80;99.90
72206;DHT22;60111;48.286;7.812;2022-11-21T04:32:28;6.80;99.90
72206;DHT22;60111;48.286;7.812;2022-11-21T04:35:01;6.80;99.90
72206;DHT22;60111;48.286;7.812;2022-11-21T04:37:34;6.80;99.90
72206;DHT22;60111;48.286;7.812;2022-11-21T04:40:07;6.80;99.90
72206;DHT22;60111;48.286;7.812;2022-11-21T04:42:44;6.80;99.90
72206;DHT22;60111;48.286;7.812;2022-11-21T04:45:17;6.80;99.90
72206;DHT22;60111;48.286;7.812;2022-11-21T04:47:50;6.80;99.90
72206;DHT22;60111;48.286;7.812;2022-11-21T04:50:23;6.80;99.90
72206;DHT22;60111;48.286;7.812;2022-11-21T04:52:56;6.80;99.90
72206;DHT22;60111;48.286;7.812;2022-11-21T04:55:30;6.70;99.90
72206;DHT22;60111;48.286;7.812;2022-11-21T04:58:03;6.70;99.90
72206;DHT22;60111;48.286;7.812;2022-11-21T05:00:35;6.80;99.90
72206;DHT22;60111;48.286;7.812;2022-11-21T05:03:08;6.70;99.90
72206;DHT22;60111;48.286;7.812;2022-11-21T05:05:41;6.80;99.90
72206;DHT22;60111;48.286;7.812;2022-11-21T05:08:14;6.90;99.90
72206;DHT22;60111;48.286;7.812;2022-11-21T05:10:46;6.90;99.90
72206;DHT22;60111;48.286;7.812;2022-11-21T05:13:37;6.90;99.90
72206;DHT22;60111;48.286;7.812;2022-11-21T05:16:09;6.80;99.90
72206;DHT22;60111;48.286;7.812;2022-11-21T05:18:42;6.90;99.90
72206;DHT22;60111;48.286;7.812;2022-11-21T05:21:14;6.90;99.90
72206;DHT22;60111;48.286;7.812;2022-11-21T05:23:47;7.00;99.90
72206;DHT22;60111;48.286;7.812;2022-11-21T05:26:20;7.00;99.90
72206;DHT22;60111;48.286;7.812;2022-11-21T05:28:52;7.00;99.90
72206;DHT22;60111;48.286;7.812;2022-11-21T05:31:25;7.00;99.90
72206;DHT22;60111;48.286;7.812;2022-11-21T05:33:58;7.10;99.90
72206;DHT22;60111;48.286;7.812;2022-11-21T05:36:30;7.00;99.90
72206;DHT22;60111;48.286;7.812;2022-11-21T05:39:03;7.00;99.90
72206;DHT22;60111;48.286;7.812;2022-11-21T05:41:36;7.10;99.90
72206;DHT22;60111;48.286;7.812;2022-11-21T05:44:08;7.10;99.90
72206;DHT22;60111;48.286;7.812;2022-11-21T05:46:41;7.10;99.90
72206;DHT22;60111;48.286;7.812;2022-11-21T05:49:14;7.10;99.90
72206;DHT22;60111;48.286;7.812;2022-11-21T05:51:46;7.10;99.90
72206;DHT22;60111;48.286;7.812;2022-11-21T05:54:20;7.10;99.90
72206;DHT22;60111;48.286;7.812;2022-11-21T05:56:52;7.10;99.90
72206;DHT22;60111;48.286;7.812;2022-11-21T05:59:25;7.10;99.90
72206;DHT22;60111;48.286;7.812;2022-11-21T06:01:57;7.00;99.90
72206;DHT22;60111;48.286;7.812;2022-11-21T06:04:48;7.00;99.90
72206;DHT22;60111;48.286;7.812;2022-11-21T06:07:21;7.10;99.90
72206;DHT22;60111;48.286;7.812;2022-11-21T06:09:53;7.10;99.90
72206;DHT22;60111;48.286;7.812;2022-11-21T06:12:26;7.10;99.90
72206;DHT22;60111;48.286;7.812;2022-11-21T06:14:58;7.00;99.90
72206;DHT22;60111;48.286;7.812;2022-11-21T06:17:31;7.10;99.90
72206;DHT22;60111;48.286;7.812;2022-11-21T06:20:05;7.10;99.90
72206;DHT22;60111;48.286;7.812;2022-11-21T06:22:38;7.10;99.90
72206;DHT22;60111;48.286;7.812;2022-11-21T06:25:10;7.10;99.90
72206;DHT22;60111;48.286;7.812;2022-11-21T06:27:43;7.10;99.90
72206;DHT22;60111;48.286;7.812;2022-11-21T06:30:15;7.10;99.90
72206;DHT22;60111;48.286;7.812;2022-11-21T06:32:48;7.20;99.90
72206;DHT22;60111;48.286;7.812;2022-11-21T06:35:20;7.20;99.90
72206;DHT22;60111;48.286;7.812;2022-11-21T06:37:53;7.20;99.90
72206;DHT22;60111;48.286;7.812;2022-11-21T06:40:27;7.20;99.90
72206;DHT22;60111;48.286;7.812;2022-11-21T06:43:00;7.10;99.90
72206;DHT22;60111;48.286;7.812;2022-11-21T06:45:33;7.20;99.90
72206;DHT22;60111;48.286;7.812;2022-11-21T06:48:05;7.10;99.90
72206;DHT22;60111;48.286;7.812;2022-11-21T06:50:38;7.10;99.90
72206;DHT22;60111;48.286;7.812;2022-11-21T06:53:11;7.10;99.90
72206;DHT22;60111;48.286;7.812;2022-11-21T06:55:43;7.20;99.90
72206;DHT22;60111;48.286;7.812;2022-11-21T06:58:16;7.20;99.90
72206;DHT22;60111;48.286;7.812;2022-11-21T07:00:48;7.30;99.90
72206;DHT22;60111;48.286;7.812;2022-11-21T07:03:21;7.20;99.90
72206;DHT22;60111;48.286;7.812;2022-11-21T07:05:54;7.20;99.90
72206;DHT22;60111;48.286;7.812;2022-11-21T07:08:29;7.20;99.90
72206;DHT22;60111;48.286;7.812;2022-11-21T07:11:05;7.20;99.90
72206;DHT22;60111;48.286;7.812;2022-11-21T07:13:38;7.20;99.90
72206;DHT22;60111;48.286;7.812;2022-11-21T07:16:11;7.20;99.90
72206;DHT22;60111;48.286;7.812;2022-11-21T07:18:47;7.20;99.90
72206;DHT22;60111;48.286;7.812;2022-11-21T07:21:20;7.30;99.90
72206;DHT22;60111;48.286;7.812;2022-11-21T07:23:53;7.30;99.90
72206;DHT22;60111;48.286;7.812;2022-11-21T07:26:25;7.30;99.90
72206;DHT22;60111;48.286;7.812;2022-11-21T07:28:58;7.30;99.90
72206;DHT22;60111;48.286;7.812;2022-11-21T07:31:31;7.30;99.90
72206;DHT22;60111;48.286;7.812;2022-11-21T07:34:03;7.30;99.90
72206;DHT22;60111;48.286;7.812;2022-11-21T07:36:36;7.30;99.90
72206;DHT22;60111;48.286;7.812;2022-11-21T07:39:08;7.40;99.90
72206;DHT22;60111;48.286;7.812;2022-11-21T07:41:41;7.40;99.90
72206;DHT22;60111;48.286;7.812;2022-11-21T07:44:14;7.40;99.90
72206;DHT22;60111;48.286;7.812;2022-11-21T07:46:46;7.40;99.90
72206;DHT22;60111;48.286;7.812;2022-11-21T07:49:19;7.40;99.90
72206;DHT22;60111;48.286;7.812;2022-11-21T07:51:51;7.40;99.90
72206;DHT22;60111;48.286;7.812;2022-11-21T07:54:24;7.50;99.90
72206;DHT22;60111;48.286;7.812;2022-11-21T07:56:56;7.50;99.90
72206;DHT22;60111;48.286;7.812;2022-11-21T07:59:29;7.60;99.90
72206;DHT22;60111;48.286;7.812;2022-11-21T08:02:01;7.60;99.90
72206;DHT22;60111;48.286;7.812;2022-11-21T08:04:34;7.60;99.90
72206;DHT22;60111;48.286;7.812;2022-11-21T08:07:09;7.80;99.90
72206;DHT22;60111;48.286;7.812;2022-11-21T08:09:42;7.80;99.90
72206;DHT22;60111;48.286;7.812;2022-11-21T08:12:15;7.90;99.90
72206;DHT22;60111;48.286;7.812;2022-11-21T08:14:47;8.00;99.90
72206;DHT22;60111;48.286;7.812;2022-11-21T08:17:20;8.20;99.90
72206;DHT22;60111;48.286;7.812;2022-11-21T08:19:53;8.30;99.90
72206;DHT22;60111;48.286;7.812;2022-11-21T08:22:26;8.40;99.90
72206;DHT22;60111;48.286;7.812;2022-11-21T08:24:59;8.40;99.90
72206;DHT22;60111;48.286;7.812;2022-11-21T08:27:31;8.40;99.90
72206;DHT22;60111;48.286;7.812;2022-11-21T08:30:09;8.40;99.90
72206;DHT22;60111;48.286;7.812;2022-11-21T08:32:41;8.30;99.90
72206;DHT22;60111;48.286;7.812;2022-11-21T08:35:14;8.30;99.90
72206;DHT22;60111;48.286;7.812;2022-11-21T08:37:47;8.40;99.90
72206;DHT22;60111;48.286;7.812;2022-11-21T08:40:19;8.40;99.90
72206;DHT22;60111;48.286;7.812;2022-11-21T08:43:05;8.40;99.90
72206;DHT22;60111;48.286;7.812;2022-11-21T08:45:38;8.40;99.90
72206;DHT22;60111;48.286;7.812;2022-11-21T08:48:12;8.50;99.90
72206;DHT22;60111;48.286;7.812;2022-11-21T08:50:44;8.60;99.90
72206;DHT22;60111;48.286;7.812;2022-11-21T08:53:17;8.90;99.90
72206;DHT22;60111;48.286;7.812;2022-11-21T08:55:49;9.00;99.90
72206;DHT22;60111;48.286;7.812;2022-11-21T08:58:22;9.10;99.90
72206;DHT22;60111;48.286;7.812;2022-11-21T09:00:54;9.10;99.90
72206;DHT22;60111;48.286;7.812;2022-11-21T09:03:27;9.10;99.90
72206;DHT22;60111;48.286;7.812;2022-11-21T09:06:00;9.10;99.90
72206;DHT22;60111;48.286;7.812;2022-11-21T09:08:32;9.10;99.90
72206;DHT22;60111;48.286;7.812;2022-11-21T09:11:08;9.20;99.90
72206;DHT22;60111;48.286;7.812;2022-11-21T09:13:40;9.50;99.90
72206;DHT22;60111;48.286;7.812;2022-11-21T09:16:13;9.60;99.90
72206;DHT22;60111;48.286;7.812;2022-11-21T09:19:03;9.70;99.90
72206;DHT22;60111;48.286;7.812;2022-11-21T09:21:36;9.90;99.90
72206;DHT22;60111;48.286;7.812;2022-11-21T09:24:08;10.00;99.90
72206;DHT22;60111;48.286;7.812;2022-11-21T09:26:41;10.10;99.90
72206;DHT22;60111;48.286;7.812;2022-11-21T09:29:13;10.20;99.90
72206;DHT22;60111;48.286;7.812;2022-11-21T09:31:46;10.20;99.90
72206;DHT22;60111;48.286;7.812;2022-11-21T09:34:19;10.20;99.90
72206;DHT22;60111;48.286;7.812;2022-11-21T09:36:52;10.30;99.90
72206;DHT22;60111;48.286;7.812;2022-11-21T09:39:25;10.30;99.90
72206;DHT22;60111;48.286;7.812;2022-11-21T09:47:29;10.40;99.90
72206;DHT22;60111;48.286;7.812;2022-11-21T09:50:06;10.50;99.90
72206;DHT22;60111;48.286;7.812;2022-11-21T09:52:42;10.60;99.90
72206;DHT22;60111;48.286;7.812;2022-11-21T09:57:56;11.00;99.90
72206;DHT22;60111;48.286;7.812;2022-11-21T10:00:30;11.20;99.90
72206;DHT22;60111;48.286;7.812;2022-11-21T10:03:03;11.20;99.90
72206;DHT22;60111;48.286;7.812;2022-11-21T10:05:40;11.20;99.90
72206;DHT22;60111;48.286;7.812;2022-11-21T10:10:55;11.00;99.90
72206;DHT22;60111;48.286;7.812;2022-11-21T10:16:32;10.90;99.90
72206;DHT22;60111;48.286;7.812;2022-11-21T10:24:47;11.00;99.90
72206;DHT22;60111;48.286;7.812;2022-11-21T10:27:33;10.90;99.90
72206;DHT22;60111;48.286;7.812;2022-11-21T10:30:12;10.80;99.90
72206;DHT22;60111;48.286;7.812;2022-11-21T10:32:46;10.80;99.90
72206;DHT22;60111;48.286;7.812;2022-11-21T10:35:37;10.70;99.90
72206;DHT22;60111;48.286;7.812;2022-11-21T10:38:00;10.80;99.90
72206;DHT22;60111;48.286;7.812;2022-11-21T10:40:44;11.00;99.90
72206;DHT22;60111;48.286;7.812;2022-11-21T10:43:24;11.10;99.90
72206;DHT22;60111;48.286;7.812;2022-11-21T10:46:14;11.20;99.90
72206;DHT22;60111;48.286;7.812;2022-11-21T10:48:55;11.20;99.90
72206;DHT22;60111;48.286;7.812;2022-11-21T10:54:16;11.30;99.90
72206;DHT22;60111;48.286;7.812;2022-11-21T10:57:11;11.30;99.90
72206;DHT22;60111;48.286;7.812;2022-11-21T10:59:59;11.10;99.90
72206;DHT22;60111;48.286;7.812;2022-11-21T11:02:32;11.00;99.90
72206;DHT22;60111;48.286;7.812;2022-11-21T11:05:19;11.10;99.90
72206;DHT22;60111;48.286;7.812;2022-11-21T11:10:45;11.10;99.90
72206;DHT22;60111;48.286;7.812;2022-11-21T11:13:20;11.20;99.90
72206;DHT22;60111;48.286;7.812;2022-11-21T11:19:15;11.40;99.90
72206;DHT22;60111;48.286;7.812;2022-11-21T11:21:42;11.50;99.90
72206;DHT22;60111;48.286;7.812;2022-11-21T11:24:21;11.50;99.90
72206;DHT22;60111;48.286;7.812;2022-11-21T11:27:00;11.50;99.90
72206;DHT22;60111;48.286;7.812;2022-11-21T11:29:34;11.40;99.90
72206;DHT22;60111;48.286;7.812;2022-11-21T11:32:13;11.50;99.90
72206;DHT22;60111;48.286;7.812;2022-11-21T11:35:06;11.50;99.90
72206;DHT22;60111;48.286;7.812;2022-11-21T11:37:39;11.60;99.90
72206;DHT22;60111;48.286;7.812;2022-11-21T11:40:18;11.60;99.90
72206;DHT22;60111;48.286;7.812;2022-11-21T11:49:51;11.70;99.90
72206;DHT22;60111;48.286;7.812;2022-11-21T11:53:17;11.50;99.90
72206;DHT22;60111;48.286;7.812;2022-11-21T11:55:53;11.30;99.90
72206;DHT22;60111;48.286;7.812;2022-11-21T11:58:48;11.30;99.90
72206;DHT22;60111;48.286;7.812;2022-11-21T12:04:17;11.20;99.90
72206;DHT22;60111;48.286;7.812;2022-11-21T12:07:25;11.40;99.90
72206;DHT22;60111;48.286;7.812;2022-11-21T12:10:05;11.30;99.90
72206;DHT22;60111;48.286;7.812;2022-11-21T12:12:47;11.30;99.90
72206;DHT22;60111;48.286;7.812;2022-11-21T12:15:29;11.40;99.90
72206;DHT22;60111;48.286;7.812;2022-11-21T12:21:03;11.50;99.90
72206;DHT22;60111;48.286;7.812;2022-11-21T12:29:18;11.40;99.90
72206;DHT22;60111;48.286;7.812;2022-11-21T12:34:54;11.30;99.90
72206;DHT22;60111;48.286;7.812;2022-11-21T12:46:06;11.20;99.90
72206;DHT22;60111;48.286;7.812;2022-11-21T12:52:17;11.10;99.90
72206;DHT22;60111;48.286;7.812;2022-11-21T12:55:12;11.10;99.90
72206;DHT22;60111;48.286;7.812;2022-11-21T12:57:58;11.10;99.90
72206;DHT22;60111;48.286;7.812;2022-11-21T13:00:41;11.10;99.90
72206;DHT22;60111;48.286;7.812;2022-11-21T13:03:40;11.10;99.90
72206;DHT22;60111;48.286;7.812;2022-11-21T13:06:58;11.20;99.90
72206;DHT22;60111;48.286;7.812;2022-11-21T13:08:54;11.10;99.90
72206;DHT22;60111;48.286;7.812;2022-11-21T13:12:12;11.10;99.90
72206;DHT22;60111;48.286;7.812;2022-11-21T13:20:21;11.00;99.90
72206;DHT22;60111;48.286;7.812;2022-11-21T13:23:03;11.00;99.90
72206;DHT22;60111;48.286;7.812;2022-11-21T13:25:38;11.00;99.90
72206;DHT22;60111;48.286;7.812;2022-11-21T13:30:56;11.00;99.90
72206;DHT22;60111;48.286;7.812;2022-11-21T13:44:53;11.00;99.90
72206;DHT22;60111;48.286;7.812;2022-11-21T13:47:41;11.00;99.90
72206;DHT22;60111;48.286;7.812;2022-11-21T13:58:37;11.00;99.90
72206;DHT22;60111;48.286;7.812;2022-11-21T14:07:29;10.80;99.90
72206;DHT22;60111;48.286;7.812;2022-11-21T14:10:17;10.70;99.90
72206;DHT22;60111;48.286;7.812;2022-11-21T14:12:41;10.80;99.90
72206;DHT22;60111;48.286;7.812;2022-11-21T14:18:24;10.70;99.90
72206;DHT22;60111;48.286;7.812;2022-11-21T14:21:00;10.70;99.90
72206;DHT22;60111;48.286;7.812;2022-11-21T14:23:34;10.70;99.90
72206;DHT22;60111;48.286;7.812;2022-11-21T14:26:18;10.60;99.90
72206;DHT22;60111;48.286;7.812;2022-11-21T14:28:51;10.60;99.90
72206;DHT22;60111;48.286;7.812;2022-11-21T14:31:23;10.60;99.90
72206;DHT22;60111;48.286;7.812;2022-11-21T14:33:56;10.60;99.90
72206;DHT22;60111;48.286;7.812;2022-11-21T14:36:29;10.70;99.90
72206;DHT22;60111;48.286;7.812;2022-11-21T14:39:13;10.70;99.90
72206;DHT22;60111;48.286;7.812;2022-11-21T14:41:50;10.70;99.90
72206;DHT22;60111;48.286;7.812;2022-11-21T14:44:20;10.60;99.90
72206;DHT22;60111;48.286;7.812;2022-11-21T14:47:04;10.60;99.90
72206;DHT22;60111;48.286;7.812;2022-11-21T14:49:47;10.60;99.90
72206;DHT22;60111;48.286;7.812;2022-11-21T14:52:34;10.50;99.90
72206;DHT22;60111;48.286;7.812;2022-11-21T14:55:02;10.40;99.90
72206;DHT22;60111;48.286;7.812;2022-11-21T14:57:36;10.40;99.90
72206;DHT22;60111;48.286;7.812;2022-11-21T15:00:14;10.30;99.90
72206;DHT22;60111;48.286;7.812;2022-11-21T15:02:52;10.30;99.90
72206;DHT22;60111;48.286;7.812;2022-11-21T15:05:30;10.20;99.90
72206;DHT22;60111;48.286;7.812;2022-11-21T15:08:03;10.10;99.90
72206;DHT22;60111;48.286;7.812;2022-11-21T15:10:36;10.10;99.90
72206;DHT22;60111;48.286;7.812;2022-11-21T15:13:12;10.00;99.90
72206;DHT22;60111;48.286;7.812;2022-11-21T15:15:47;9.90;99.90
72206;DHT22;60111;48.286;7.812;2022-11-21T15:18:23;9.90;99.90
72206;DHT22;60111;48.286;7.812;2022-11-21T15:21:01;9.80;99.90
72206;DHT22;60111;48.286;7.812;2022-11-21T15:23:36;9.80;99.90
72206;DHT22;60111;48.286;7.812;2022-11-21T15:26:32;9.80;99.90
72206;DHT22;60111;48.286;7.812;2022-11-21T15:29:15;9.80;99.90
72206;DHT22;60111;48.286;7.812;2022-11-21T15:31:39;9.70;99.90
72206;DHT22;60111;48.286;7.812;2022-11-21T15:34:33;9.60;99.90
72206;DHT22;60111;48.286;7.812;2022-11-21T15:37:17;9.50;99.90
72206;DHT22;60111;48.286;7.812;2022-11-21T15:39:47;9.40;99.90
72206;DHT22;60111;48.286;7.812;2022-11-21T15:47:50;9.20;99.90
72206;DHT22;60111;48.286;7.812;2022-11-21T15:50:24;9.10;99.90
72206;DHT22;60111;48.286;7.812;2022-11-21T15:52:57;9.10;99.90
72206;DHT22;60111;48.286;7.812;2022-11-21T15:55:29;9.00;99.90
72206;DHT22;60111;48.286;7.812;2022-11-21T15:58:03;9.00;99.90
72206;DHT22;60111;48.286;7.812;2022-11-21T16:00:35;8.80;99.90
72206;DHT22;60111;48.286;7.812;2022-11-21T16:03:08;8.70;99.90
72206;DHT22;60111;48.286;7.812;2022-11-21T16:05:40;8.50;99.90
72206;DHT22;60111;48.286;7.812;2022-11-21T16:08:13;8.50;99.90
72206;DHT22;60111;48.286;7.812;2022-11-21T16:10:45;8.40;99.90
72206;DHT22;60111;48.286;7.812;2022-11-21T16:13:18;8.30;99.90
72206;DHT22;60111;48.286;7.812;2022-11-21T16:15:51;8.30;99.90
72206;DHT22;60111;48.286;7.812;2022-11-21T16:18:23;8.20;99.90
72206;DHT22;60111;48.286;7.812;2022-11-21T16:21:07;8.10;99.90
72206;DHT22;60111;48.286;7.812;2022-11-21T16:23:39;8.10;99.90
72206;DHT22;60111;48.286;7.812;2022-11-21T16:26:12;8.00;99.90
72206;DHT22;60111;48.286;7.812;2022-11-21T16:28:45;8.00;99.90
72206;DHT22;60111;48.286;7.812;2022-11-21T16:31:19;8.00;99.90
72206;DHT22;60111;48.286;7.812;2022-11-21T16:33:52;8.00;99.90
72206;DHT22;60111;48.286;7.812;2022-11-21T16:36:27;8.00;99.90
72206;DHT22;60111;48.286;7.812;2022-11-21T16:39:00;8.00;99.90
72206;DHT22;60111;48.286;7.812;2022-11-21T16:41:33;8.00;99.90
72206;DHT22;60111;48.286;7.812;2022-11-21T16:44:11;7.90;99.90
72206;DHT22;60111;48.286;7.812;2022-11-21T16:46:45;7.90;99.90
72206;DHT22;60111;48.286;7.812;2022-11-21T16:49:19;7.90;99.90
72206;DHT22;60111;48.286;7.812;2022-11-21T16:51:54;7.80;99.90
72206;DHT22;60111;48.286;7.812;2022-11-21T16:54:28;7.70;99.90
72206;DHT22;60111;48.286;7.812;2022-11-21T16:57:01;7.70;99.90
72206;DHT22;60111;48.286;7.812;2022-11-21T16:59:33;7.70;99.90
72206;DHT22;60111;48.286;7.812;2022-11-21T17:02:06;7.60;99.90
72206;DHT22;60111;48.286;7.812;2022-11-21T17:04:39;7.60;99.90
72206;DHT22;60111;48.286;7.812;2022-11-21T17:07:11;7.50;99.90
72206;DHT22;60111;48.286;7.812;2022-11-21T17:09:44;7.50;99.90
72206;DHT22;60111;48.286;7.812;2022-11-21T17:12:16;7.50;99.90
72206;DHT22;60111;48.286;7.812;2022-11-21T17:14:49;7.40;99.90
72206;DHT22;60111;48.286;7.812;2022-11-21T17:17:22;7.50;99.90
72206;DHT22;60111;48.286;7.812;2022-11-21T17:19:55;7.50;99.90
72206;DHT22;60111;48.286;7.812;2022-11-21T17:22:27;7.40;99.90
72206;DHT22;60111;48.286;7.812;2022-11-21T17:25:00;7.50;99.90
72206;DHT22;60111;48.286;7.812;2022-11-21T17:27:33;7.50;99.90
72206;DHT22;60111;48.286;7.812;2022-11-21T17:30:06;7.50;99.90
72206;DHT22;60111;48.286;7.812;2022-11-21T17:32:39;7.50;99.90
72206;DHT22;60111;48.286;7.812;2022-11-21T17:35:12;7.50;99.90
72206;DHT22;60111;48.286;7.812;2022-11-21T17:37:44;7.50;99.90
72206;DHT22;60111;48.286;7.812;2022-11-21T17:40:17;7.60;99.90
72206;DHT22;60111;48.286;7.812;2022-11-21T17:42:49;7.50;99.90
72206;DHT22;60111;48.286;7.812;2022-11-21T17:45:22;7.50;99.90
72206;DHT22;60111;48.286;7.812;2022-11-21T17:47:55;7.50;99.90
72206;DHT22;60111;48.286;7.812;2022-11-21T17:50:28;7.50;99.90
72206;DHT22;60111;48.286;7.812;2022-11-21T17:53:00;7.50;99.90
72206;DHT22;60111;48.286;7.812;2022-11-21T17:55:33;7.50;99.90
72206;DHT22;60111;48.286;7.812;2022-11-21T17:58:05;7.50;99.90
72206;DHT22;60111;48.286;7.812;2022-11-21T18:00:38;7.40;99.90
72206;DHT22;60111;48.286;7.812;2022-11-21T18:03:11;7.40;99.90
72206;DHT22;60111;48.286;7.812;2022-11-21T18:05:43;7.30;99.90
72206;DHT22;60111;48.286;7.812;2022-11-21T18:08:16;7.40;99.90
72206;DHT22;60111;48.286;7.812;2022-11-21T18:10:52;7.30;99.90
72206;DHT22;60111;48.286;7.812;2022-11-21T18:13:26;7.30;99.90
72206;DHT22;60111;48.286;7.812;2022-11-21T18:16:06;7.30;99.90
72206;DHT22;60111;48.286;7.812;2022-11-21T18:18:40;7.30;99.90
72206;DHT22;60111;48.286;7.812;2022-11-21T18:21:15;7.30;99.90